sensor_id;sensor_type;location;lat;lon;timestamp;P1;P2;P0
54869;PMS5003;40756;-37.950;145.008;2023-04-28T00:00:07;1;1;
54869;PMS5003;40756;-37.950;145.008;2023-04-28T00:02:37;0;0;
54869;PMS5003;40756;-37.950;145.008;2023-04-28T00:05:06;3;2;
54869;PMS5003;40756;-37.950;145.008;2023-04-28T00:07:36;1;1;
54869;PMS5003;40756;-37.950;145.008;2023-04-28T00:10:06;1;1;
54869;PMS5003;40756;-37.950;145.008;2023-04-28T00:12:36;1;1;
54869;PMS5003;40756;-37.950;145.008;2023-04-28T00:15:06;1;1;
54869;PMS5003;40756;-37.950;145.008;2023-04-28T00:17:36;1;1;
54869;PMS5003;40756;-37.950;145.008;2023-04-28T00:20:06;2;1;
54869;PMS5003;40756;-37.950;145.008;2023-04-28T00:22:36;1;1;
54869;PMS5003;40756;-37.950;145.008;2023-04-28T00:25:05;0;0;
54869;PMS5003;40756;-37.950;145.008;2023-04-28T00:27:36;2;1;
54869;PMS5003;40756;-37.950;145.008;2023-04-28T00:30:06;0;0;
54869;PMS5003;40756;-37.950;145.008;2023-04-28T00:32:36;0;0;
54869;PMS5003;40756;-37.950;145.008;2023-04-28T00:35:06;0;0;
54869;PMS5003;40756;-37.950;145.008;2023-04-28T00:37:36;2;0;
54869;PMS5003;40756;-37.950;145.008;2023-04-28T00:40:07;2;1;
54869;PMS5003;40756;-37.950;145.008;2023-04-28T00:42:37;1;1;
54869;PMS5003;40756;-37.950;145.008;2023-04-28T00:45:06;2;2;
54869;PMS5003;40756;-37.950;145.008;2023-04-28T00:47:37;1;0;
54869;PMS5003;40756;-37.950;145.008;2023-04-28T00:50:09;1;1;
54869;PMS5003;40756;-37.950;145.008;2023-04-28T00:52:38;1;1;
54869;PMS5003;40756;-37.950;145.008;2023-04-28T00:55:09;1;1;
54869;PMS5003;40756;-37.950;145.008;2023-04-28T00:57:41;0;0;
54869;PMS5003;40756;-37.950;145.008;2023-04-28T01:00:12;1;1;
54869;PMS5003;40756;-37.950;145.008;2023-04-28T01:02:43;1;1;
54869;PMS5003;40756;-37.950;145.008;2023-04-28T01:05:12;1;1;
54869;PMS5003;40756;-37.950;145.008;2023-04-28T01:07:43;1;1;
54869;PMS5003;40756;-37.950;145.008;2023-04-28T01:10:12;1;1;
54869;PMS5003;40756;-37.950;145.008;2023-04-28T01:12:42;0;0;
54869;PMS5003;40756;-37.950;145.008;2023-04-28T01:15:14;1;1;
54869;PMS5003;40756;-37.950;145.008;2023-04-28T01:17:44;0;0;
54869;PMS5003;40756;-37.950;145.008;2023-04-28T01:20:15;1;1;
54869;PMS5003;40756;-37.950;145.008;2023-04-28T01:22:44;1;1;
54869;PMS5003;40756;-37.950;145.008;2023-04-28T01:25:13;3;3;
54869;PMS5003;40756;-37.950;145.008;2023-04-28T01:27:43;3;3;
54869;PMS5003;40756;-37.950;145.008;2023-04-28T01:30:12;2;2;
54869;PMS5003;40756;-37.950;145.008;2023-04-28T01:32:42;2;2;
54869;PMS5003;40756;-37.950;145.008;2023-04-28T01:35:11;2;2;
54869;PMS5003;40756;-37.950;145.008;2023-04-28T01:37:41;2;2;
54869;PMS5003;40756;-37.950;145.008;2023-04-28T01:40:11;0;0;
54869;PMS5003;40756;-37.950;145.008;2023-04-28T01:42:40;1;1;
54869;PMS5003;40756;-37.950;145.008;2023-04-28T01:45:10;0;0;
54869;PMS5003;40756;-37.950;145.008;2023-04-28T01:47:41;2;1;
54869;PMS5003;40756;-37.950;145.008;2023-04-28T01:50:10;1;0;
54869;PMS5003;40756;-37.950;145.008;2023-04-28T01:52:40;0;0;
54869;PMS5003;40756;-37.950;145.008;2023-04-28T01:55:09;0;0;
54869;PMS5003;40756;-37.950;145.008;2023-04-28T01:57:39;0;0;
54869;PMS5003;40756;-37.950;145.008;2023-04-28T02:00:09;1;0;
54869;PMS5003;40756;-37.950;145.008;2023-04-28T02:02:39;1;1;
54869;PMS5003;40756;-37.950;145.008;2023-04-28T02:05:08;1;1;
54869;PMS5003;40756;-37.950;145.008;2023-04-28T02:07:37;1;1;
54869;PMS5003;40756;-37.950;145.008;2023-04-28T02:10:07;1;1;
54869;PMS5003;40756;-37.950;145.008;2023-04-28T02:12:38;1;1;
54869;PMS5003;40756;-37.950;145.008;2023-04-28T02:15:08;0;0;
54869;PMS5003;40756;-37.950;145.008;2023-04-28T02:17:38;3;3;
54869;PMS5003;40756;-37.950;145.008;2023-04-28T02:20:07;2;1;
54869;PMS5003;40756;-37.950;145.008;2023-04-28T02:22:37;2;1;
54869;PMS5003;40756;-37.950;145.008;2023-04-28T02:25:07;1;1;
54869;PMS5003;40756;-37.950;145.008;2023-04-28T02:27:37;1;1;
54869;PMS5003;40756;-37.950;145.008;2023-04-28T02:30:07;0;0;
54869;PMS5003;40756;-37.950;145.008;2023-04-28T02:32:37;2;1;
54869;PMS5003;40756;-37.950;145.008;2023-04-28T02:35:07;2;2;
54869;PMS5003;40756;-37.950;145.008;2023-04-28T02:37:36;1;1;
54869;PMS5003;40756;-37.950;145.008;2023-04-28T02:40:07;0;0;
54869;PMS5003;40756;-37.950;145.008;2023-04-28T02:42:37;2;1;
54869;PMS5003;40756;-37.950;145.008;2023-04-28T02:45:07;1;1;
54869;PMS5003;40756;-37.950;145.008;2023-04-28T02:47:37;2;1;
54869;PMS5003;40756;-37.950;145.008;2023-04-28T02:50:07;3;2;
54869;PMS5003;40756;-37.950;145.008;2023-04-28T02:52:37;1;1;
54869;PMS5003;40756;-37.950;145.008;2023-04-28T02:55:07;3;3;
54869;PMS5003;40756;-37.950;145.008;2023-04-28T02:57:36;0;0;
54869;PMS5003;40756;-37.950;145.008;2023-04-28T03:00:07;0;0;
54869;PMS5003;40756;-37.950;145.008;2023-04-28T03:02:36;2;1;
54869;PMS5003;40756;-37.950;145.008;2023-04-28T03:05:06;0;0;
54869;PMS5003;40756;-37.950;145.008;2023-04-28T03:07:37;1;0;
54869;PMS5003;40756;-37.950;145.008;2023-04-28T03:10:06;0;0;
54869;PMS5003;40756;-37.950;145.008;2023-04-28T03:12:36;1;1;
54869;PMS5003;40756;-37.950;145.008;2023-04-28T03:15:06;0;0;
54869;PMS5003;40756;-37.950;145.008;2023-04-28T03:17:36;2;1;
54869;PMS5003;40756;-37.950;145.008;2023-04-28T03:20:06;1;0;
54869;PMS5003;40756;-37.950;145.008;2023-04-28T03:22:37;3;2;
54869;PMS5003;40756;-37.950;145.008;2023-04-28T03:25:12;3;3;
54869;PMS5003;40756;-37.950;145.008;2023-04-28T03:27:41;3;2;
54869;PMS5003;40756;-37.950;145.008;2023-04-28T03:30:11;2;1;
54869;PMS5003;40756;-37.950;145.008;2023-04-28T03:32:41;2;2;
54869;PMS5003;40756;-37.950;145.008;2023-04-28T03:35:10;3;3;
54869;PMS5003;40756;-37.950;145.008;2023-04-28T03:37:40;36;34;
54869;PMS5003;40756;-37.950;145.008;2023-04-28T03:40:10;8;6;
54869;PMS5003;40756;-37.950;145.008;2023-04-28T03:42:39;6;5;
54869;PMS5003;40756;-37.950;145.008;2023-04-28T03:45:09;19;17;
54869;PMS5003;40756;-37.950;145.008;2023-04-28T03:47:38;17;13;
54869;PMS5003;40756;-37.950;145.008;2023-04-28T03:50:09;4;2;
54869;PMS5003;40756;-37.950;145.008;2023-04-28T03:52:38;4;3;
54869;PMS5003;40756;-37.950;145.008;2023-04-28T03:55:07;4;3;
54869;PMS5003;40756;-37.950;145.008;2023-04-28T03:57:38;11;10;
54869;PMS5003;40756;-37.950;145.008;2023-04-28T04:00:08;4;4;
54869;PMS5003;40756;-37.950;145.008;2023-04-28T04:02:38;5;3;
54869;PMS5003;40756;-37.950;145.008;2023-04-28T04:05:07;4;2;
54869;PMS5003;40756;-37.950;145.008;2023-04-28T04:07:37;1;1;
54869;PMS5003;40756;-37.950;145.008;2023-04-28T04:10:07;2;1;
54869;PMS5003;40756;-37.950;145.008;2023-04-28T04:12:36;2;0;
54869;PMS5003;40756;-37.950;145.008;2023-04-28T04:15:06;3;1;
54869;PMS5003;40756;-37.950;145.008;2023-04-28T04:17:36;4;4;
54869;PMS5003;40756;-37.950;145.008;2023-04-28T04:20:07;12;11;
54869;PMS5003;40756;-37.950;145.008;2023-04-28T04:22:36;4;4;
54869;PMS5003;40756;-37.950;145.008;2023-04-28T04:25:06;2;2;
54869;PMS5003;40756;-37.950;145.008;2023-04-28T04:27:35;3;3;
54869;PMS5003;40756;-37.950;145.008;2023-04-28T04:30:05;2;2;
54869;PMS5003;40756;-37.950;145.008;2023-04-28T04:32:35;4;3;
54869;PMS5003;40756;-37.950;145.008;2023-04-28T04:35:05;4;4;
54869;PMS5003;40756;-37.950;145.008;2023-04-28T04:37:36;4;2;
54869;PMS5003;40756;-37.950;145.008;2023-04-28T04:40:06;3;2;
54869;PMS5003;40756;-37.950;145.008;2023-04-28T04:42:36;5;4;
54869;PMS5003;40756;-37.950;145.008;2023-04-28T04:45:06;3;2;
54869;PMS5003;40756;-37.950;145.008;2023-04-28T04:47:36;6;5;
54869;PMS5003;40756;-37.950;145.008;2023-04-28T04:50:06;4;3;
54869;PMS5003;40756;-37.950;145.008;2023-04-28T04:52:37;2;2;
54869;PMS5003;40756;-37.950;145.008;2023-04-28T04:55:07;4;2;
54869;PMS5003;40756;-37.950;145.008;2023-04-28T04:57:37;2;2;
54869;PMS5003;40756;-37.950;145.008;2023-04-28T05:00:07;3;2;
54869;PMS5003;40756;-37.950;145.008;2023-04-28T05:02:37;2;2;
54869;PMS5003;40756;-37.950;145.008;2023-04-28T05:05:07;5;4;
54869;PMS5003;40756;-37.950;145.008;2023-04-28T05:07:36;5;4;
54869;PMS5003;40756;-37.950;145.008;2023-04-28T05:10:06;4;4;
54869;PMS5003;40756;-37.950;145.008;2023-04-28T05:12:36;2;2;
54869;PMS5003;40756;-37.950;145.008;2023-04-28T05:15:06;4;4;
54869;PMS5003;40756;-37.950;145.008;2023-04-28T05:17:37;5;3;
54869;PMS5003;40756;-37.950;145.008;2023-04-28T05:20:07;3;3;
54869;PMS5003;40756;-37.950;145.008;2023-04-28T05:22:37;6;3;
54869;PMS5003;40756;-37.950;145.008;2023-04-28T05:25:06;4;2;
54869;PMS5003;40756;-37.950;145.008;2023-04-28T05:27:37;2;2;
54869;PMS5003;40756;-37.950;145.008;2023-04-28T05:30:07;3;3;
54869;PMS5003;40756;-37.950;145.008;2023-04-28T05:32:37;4;3;
54869;PMS5003;40756;-37.950;145.008;2023-04-28T05:35:07;4;3;
54869;PMS5003;40756;-37.950;145.008;2023-04-28T05:37:36;3;3;
54869;PMS5003;40756;-37.950;145.008;2023-04-28T05:40:07;19;14;
54869;PMS5003;40756;-37.950;145.008;2023-04-28T05:42:37;5;4;
54869;PMS5003;40756;-37.950;145.008;2023-04-28T05:45:10;2;2;
54869;PMS5003;40756;-37.950;145.008;2023-04-28T05:47:40;4;3;
54869;PMS5003;40756;-37.950;145.008;2023-04-28T05:50:10;5;5;
54869;PMS5003;40756;-37.950;145.008;2023-04-28T05:52:40;5;5;
54869;PMS5003;40756;-37.950;145.008;2023-04-28T05:55:09;5;5;
54869;PMS5003;40756;-37.950;145.008;2023-04-28T05:57:39;3;2;
54869;PMS5003;40756;-37.950;145.008;2023-04-28T06:00:10;7;4;
54869;PMS5003;40756;-37.950;145.008;2023-04-28T06:02:41;4;3;
54869;PMS5003;40756;-37.950;145.008;2023-04-28T06:05:11;5;5;
54869;PMS5003;40756;-37.950;145.008;2023-04-28T06:07:40;7;4;
54869;PMS5003;40756;-37.950;145.008;2023-04-28T06:10:10;4;3;
54869;PMS5003;40756;-37.950;145.008;2023-04-28T06:12:39;2;2;
54869;PMS5003;40756;-37.950;145.008;2023-04-28T06:15:09;4;3;
54869;PMS5003;40756;-37.950;145.008;2023-04-28T06:17:39;4;4;
54869;PMS5003;40756;-37.950;145.008;2023-04-28T06:20:10;2;2;
54869;PMS5003;40756;-37.950;145.008;2023-04-28T06:22:40;4;4;
54869;PMS5003;40756;-37.950;145.008;2023-04-28T06:25:09;4;4;
54869;PMS5003;40756;-37.950;145.008;2023-04-28T06:27:39;3;3;
54869;PMS5003;40756;-37.950;145.008;2023-04-28T06:30:12;4;4;
54869;PMS5003;40756;-37.950;145.008;2023-04-28T06:32:45;6;4;
54869;PMS5003;40756;-37.950;145.008;2023-04-28T06:35:15;3;2;
54869;PMS5003;40756;-37.950;145.008;2023-04-28T06:37:44;4;3;
54869;PMS5003;40756;-37.950;145.008;2023-04-28T06:40:14;3;2;
54869;PMS5003;40756;-37.950;145.008;2023-04-28T06:42:44;3;2;
54869;PMS5003;40756;-37.950;145.008;2023-04-28T06:45:13;5;4;
54869;PMS5003;40756;-37.950;145.008;2023-04-28T06:47:43;4;4;
54869;PMS5003;40756;-37.950;145.008;2023-04-28T06:50:13;5;5;
54869;PMS5003;40756;-37.950;145.008;2023-04-28T06:52:42;4;3;
54869;PMS5003;40756;-37.950;145.008;2023-04-28T06:55:14;3;3;
54869;PMS5003;40756;-37.950;145.008;2023-04-28T06:57:44;3;3;
54869;PMS5003;40756;-37.950;145.008;2023-04-28T07:00:14;6;5;
54869;PMS5003;40756;-37.950;145.008;2023-04-28T07:02:44;6;5;
54869;PMS5003;40756;-37.950;145.008;2023-04-28T07:05:13;6;5;
54869;PMS5003;40756;-37.950;145.008;2023-04-28T07:07:43;5;4;
54869;PMS5003;40756;-37.950;145.008;2023-04-28T07:10:13;3;3;
54869;PMS5003;40756;-37.950;145.008;2023-04-28T07:12:44;5;4;
54869;PMS5003;40756;-37.950;145.008;2023-04-28T07:15:14;5;5;
54869;PMS5003;40756;-37.950;145.008;2023-04-28T07:17:43;5;5;
54869;PMS5003;40756;-37.950;145.008;2023-04-28T07:20:13;8;6;
54869;PMS5003;40756;-37.950;145.008;2023-04-28T07:22:43;5;4;
54869;PMS5003;40756;-37.950;145.008;2023-04-28T07:25:12;6;5;
54869;PMS5003;40756;-37.950;145.008;2023-04-28T07:27:42;6;5;
54869;PMS5003;40756;-37.950;145.008;2023-04-28T07:30:11;7;6;
54869;PMS5003;40756;-37.950;145.008;2023-04-28T07:32:41;10;7;
54869;PMS5003;40756;-37.950;145.008;2023-04-28T07:35:11;5;4;
54869;PMS5003;40756;-37.950;145.008;2023-04-28T07:37:41;3;3;
54869;PMS5003;40756;-37.950;145.008;2023-04-28T07:40:10;5;3;
54869;PMS5003;40756;-37.950;145.008;2023-04-28T07:42:40;5;4;
54869;PMS5003;40756;-37.950;145.008;2023-04-28T07:45:09;7;5;
54869;PMS5003;40756;-37.950;145.008;2023-04-28T07:47:39;7;5;
54869;PMS5003;40756;-37.950;145.008;2023-04-28T07:50:09;3;3;
54869;PMS5003;40756;-37.950;145.008;2023-04-28T07:52:39;4;4;
54869;PMS5003;40756;-37.950;145.008;2023-04-28T07:55:09;4;4;
54869;PMS5003;40756;-37.950;145.008;2023-04-28T07:57:39;3;2;
54869;PMS5003;40756;-37.950;145.008;2023-04-28T08:00:09;5;4;
54869;PMS5003;40756;-37.950;145.008;2023-04-28T08:02:39;8;3;
54869;PMS5003;40756;-37.950;145.008;2023-04-28T08:05:09;5;4;
54869;PMS5003;40756;-37.950;145.008;2023-04-28T08:07:38;9;7;
54869;PMS5003;40756;-37.950;145.008;2023-04-28T08:10:08;16;16;
54869;PMS5003;40756;-37.950;145.008;2023-04-28T08:12:38;21;19;
54869;PMS5003;40756;-37.950;145.008;2023-04-28T08:15:08;15;13;
54869;PMS5003;40756;-37.950;145.008;2023-04-28T08:17:39;8;8;
54869;PMS5003;40756;-37.950;145.008;2023-04-28T08:20:09;7;6;
54869;PMS5003;40756;-37.950;145.008;2023-04-28T08:22:39;5;5;
54869;PMS5003;40756;-37.950;145.008;2023-04-28T08:25:09;5;5;
54869;PMS5003;40756;-37.950;145.008;2023-04-28T08:27:38;6;5;
54869;PMS5003;40756;-37.950;145.008;2023-04-28T08:30:08;6;4;
54869;PMS5003;40756;-37.950;145.008;2023-04-28T08:32:38;8;7;
54869;PMS5003;40756;-37.950;145.008;2023-04-28T08:35:07;6;5;
54869;PMS5003;40756;-37.950;145.008;2023-04-28T08:37:37;6;5;
54869;PMS5003;40756;-37.950;145.008;2023-04-28T08:40:07;7;6;
54869;PMS5003;40756;-37.950;145.008;2023-04-28T08:42:37;7;5;
54869;PMS5003;40756;-37.950;145.008;2023-04-28T08:45:07;6;6;
54869;PMS5003;40756;-37.950;145.008;2023-04-28T08:47:41;6;6;
54869;PMS5003;40756;-37.950;145.008;2023-04-28T08:50:11;5;4;
54869;PMS5003;40756;-37.950;145.008;2023-04-28T08:52:43;6;4;
54869;PMS5003;40756;-37.950;145.008;2023-04-28T08:55:14;9;6;
54869;PMS5003;40756;-37.950;145.008;2023-04-28T08:57:45;6;5;
54869;PMS5003;40756;-37.950;145.008;2023-04-28T09:00:17;7;6;
54869;PMS5003;40756;-37.950;145.008;2023-04-28T09:02:47;7;6;
54869;PMS5003;40756;-37.950;145.008;2023-04-28T09:05:17;8;6;
54869;PMS5003;40756;-37.950;145.008;2023-04-28T09:07:47;5;5;
54869;PMS5003;40756;-37.950;145.008;2023-04-28T09:10:17;5;3;
54869;PMS5003;40756;-37.950;145.008;2023-04-28T09:12:50;4;4;
54869;PMS5003;40756;-37.950;145.008;2023-04-28T09:15:28;3;2;
54869;PMS5003;40756;-37.950;145.008;2023-04-28T09:18:00;5;4;
54869;PMS5003;40756;-37.950;145.008;2023-04-28T09:20:30;3;2;
54869;PMS5003;40756;-37.950;145.008;2023-04-28T09:23:17;4;4;
54869;PMS5003;40756;-37.950;145.008;2023-04-28T09:25:56;3;2;
54869;PMS5003;40756;-37.950;145.008;2023-04-28T09:28:26;3;3;
54869;PMS5003;40756;-37.950;145.008;2023-04-28T09:30:56;2;2;
54869;PMS5003;40756;-37.950;145.008;2023-04-28T09:33:25;2;2;
54869;PMS5003;40756;-37.950;145.008;2023-04-28T09:35:55;10;9;
54869;PMS5003;40756;-37.950;145.008;2023-04-28T09:38:24;3;3;
54869;PMS5003;40756;-37.950;145.008;2023-04-28T09:40:56;3;3;
54869;PMS5003;40756;-37.950;145.008;2023-04-28T09:43:27;2;2;
54869;PMS5003;40756;-37.950;145.008;2023-04-28T09:45:59;4;3;
54869;PMS5003;40756;-37.950;145.008;2023-04-28T09:48:30;5;4;
54869;PMS5003;40756;-37.950;145.008;2023-04-28T09:51:01;5;5;
54869;PMS5003;40756;-37.950;145.008;2023-04-28T09:53:32;8;6;
54869;PMS5003;40756;-37.950;145.008;2023-04-28T09:56:03;6;5;
54869;PMS5003;40756;-37.950;145.008;2023-04-28T09:58:33;7;6;
54869;PMS5003;40756;-37.950;145.008;2023-04-28T10:01:07;5;5;
54869;PMS5003;40756;-37.950;145.008;2023-04-28T10:03:38;5;5;
54869;PMS5003;40756;-37.950;145.008;2023-04-28T10:06:09;7;6;
54869;PMS5003;40756;-37.950;145.008;2023-04-28T10:08:38;8;7;
54869;PMS5003;40756;-37.950;145.008;2023-04-28T10:11:08;7;6;
54869;PMS5003;40756;-37.950;145.008;2023-04-28T10:13:38;11;9;
54869;PMS5003;40756;-37.950;145.008;2023-04-28T10:16:08;14;13;
54869;PMS5003;40756;-37.950;145.008;2023-04-28T10:18:39;11;10;
54869;PMS5003;40756;-37.950;145.008;2023-04-28T10:21:10;6;5;
54869;PMS5003;40756;-37.950;145.008;2023-04-28T10:24:01;7;7;
54869;PMS5003;40756;-37.950;145.008;2023-04-28T10:27:18;6;5;
54869;PMS5003;40756;-37.950;145.008;2023-04-28T10:29:48;6;5;
54869;PMS5003;40756;-37.950;145.008;2023-04-28T10:32:19;6;5;
54869;PMS5003;40756;-37.950;145.008;2023-04-28T10:34:49;4;4;
54869;PMS5003;40756;-37.950;145.008;2023-04-28T10:37:19;7;7;
54869;PMS5003;40756;-37.950;145.008;2023-04-28T10:40:32;7;7;
54869;PMS5003;40756;-37.950;145.008;2023-04-28T10:43:03;7;7;
54869;PMS5003;40756;-37.950;145.008;2023-04-28T10:46:06;8;6;
54869;PMS5003;40756;-37.950;145.008;2023-04-28T10:49:09;11;9;
54869;PMS5003;40756;-37.950;145.008;2023-04-28T10:51:38;9;8;
54869;PMS5003;40756;-37.950;145.008;2023-04-28T10:54:12;8;8;
54869;PMS5003;40756;-37.950;145.008;2023-04-28T10:57:17;8;6;
54869;PMS5003;40756;-37.950;145.008;2023-04-28T10:59:48;7;6;
54869;PMS5003;40756;-37.950;145.008;2023-04-28T11:02:51;8;6;
54869;PMS5003;40756;-37.950;145.008;2023-04-28T11:05:20;6;5;
54869;PMS5003;40756;-37.950;145.008;2023-04-28T11:08:30;7;5;
54869;PMS5003;40756;-37.950;145.008;2023-04-28T11:11:16;6;6;
54869;PMS5003;40756;-37.950;145.008;2023-04-28T11:13:48;6;5;
54869;PMS5003;40756;-37.950;145.008;2023-04-28T11:16:19;9;9;
54869;PMS5003;40756;-37.950;145.008;2023-04-28T11:18:52;6;5;
54869;PMS5003;40756;-37.950;145.008;2023-04-28T11:21:30;10;9;
54869;PMS5003;40756;-37.950;145.008;2023-04-28T11:24:00;11;9;
54869;PMS5003;40756;-37.950;145.008;2023-04-28T11:26:37;7;7;
54869;PMS5003;40756;-37.950;145.008;2023-04-28T11:29:07;9;8;
54869;PMS5003;40756;-37.950;145.008;2023-04-28T11:31:37;8;7;
54869;PMS5003;40756;-37.950;145.008;2023-04-28T11:34:09;6;5;
54869;PMS5003;40756;-37.950;145.008;2023-04-28T11:36:39;8;7;
54869;PMS5003;40756;-37.950;145.008;2023-04-28T11:39:10;8;6;
54869;PMS5003;40756;-37.950;145.008;2023-04-28T11:41:40;7;7;
54869;PMS5003;40756;-37.950;145.008;2023-04-28T11:44:12;7;7;
54869;PMS5003;40756;-37.950;145.008;2023-04-28T11:46:44;8;7;
54869;PMS5003;40756;-37.950;145.008;2023-04-28T11:49:16;6;6;
54869;PMS5003;40756;-37.950;145.008;2023-04-28T11:51:46;12;10;
54869;PMS5003;40756;-37.950;145.008;2023-04-28T11:54:21;10;10;
54869;PMS5003;40756;-37.950;145.008;2023-04-28T11:56:52;7;7;
54869;PMS5003;40756;-37.950;145.008;2023-04-28T11:59:24;14;13;
54869;PMS5003;40756;-37.950;145.008;2023-04-28T12:01:55;10;9;
54869;PMS5003;40756;-37.950;145.008;2023-04-28T12:04:27;9;9;
54869;PMS5003;40756;-37.950;145.008;2023-04-28T12:06:59;10;10;
54869;PMS5003;40756;-37.950;145.008;2023-04-28T12:09:31;9;8;
54869;PMS5003;40756;-37.950;145.008;2023-04-28T12:12:02;9;9;
54869;PMS5003;40756;-37.950;145.008;2023-04-28T12:17:23;10;9;
54869;PMS5003;40756;-37.950;145.008;2023-04-28T12:19:54;9;8;
54869;PMS5003;40756;-37.950;145.008;2023-04-28T12:22:24;9;8;
54869;PMS5003;40756;-37.950;145.008;2023-04-28T12:25:10;9;9;
54869;PMS5003;40756;-37.950;145.008;2023-04-28T12:27:41;8;8;
54869;PMS5003;40756;-37.950;145.008;2023-04-28T12:30:28;9;9;
54869;PMS5003;40756;-37.950;145.008;2023-04-28T12:32:58;7;7;
54869;PMS5003;40756;-37.950;145.008;2023-04-28T12:35:28;7;6;
54869;PMS5003;40756;-37.950;145.008;2023-04-28T12:37:58;7;6;
54869;PMS5003;40756;-37.950;145.008;2023-04-28T12:40:27;10;9;
54869;PMS5003;40756;-37.950;145.008;2023-04-28T12:42:57;9;9;
54869;PMS5003;40756;-37.950;145.008;2023-04-28T12:45:26;12;11;
54869;PMS5003;40756;-37.950;145.008;2023-04-28T12:47:56;7;7;
54869;PMS5003;40756;-37.950;145.008;2023-04-28T12:50:26;12;12;
54869;PMS5003;40756;-37.950;145.008;2023-04-28T12:52:55;11;9;
54869;PMS5003;40756;-37.950;145.008;2023-04-28T12:55:25;13;11;
54869;PMS5003;40756;-37.950;145.008;2023-04-28T12:57:55;12;11;
54869;PMS5003;40756;-37.950;145.008;2023-04-28T13:00:25;12;11;
54869;PMS5003;40756;-37.950;145.008;2023-04-28T13:02:54;10;8;
54869;PMS5003;40756;-37.950;145.008;2023-04-28T13:05:24;12;11;
54869;PMS5003;40756;-37.950;145.008;2023-04-28T13:07:53;11;10;
54869;PMS5003;40756;-37.950;145.008;2023-04-28T13:10:23;12;11;
54869;PMS5003;40756;-37.950;145.008;2023-04-28T13:12:53;11;11;
54869;PMS5003;40756;-37.950;145.008;2023-04-28T13:15:22;18;15;
54869;PMS5003;40756;-37.950;145.008;2023-04-28T13:17:52;13;11;
54869;PMS5003;40756;-37.950;145.008;2023-04-28T13:20:22;11;9;
54869;PMS5003;40756;-37.950;145.008;2023-04-28T13:22:52;10;9;
54869;PMS5003;40756;-37.950;145.008;2023-04-28T13:25:21;8;7;
54869;PMS5003;40756;-37.950;145.008;2023-04-28T13:27:51;8;7;
54869;PMS5003;40756;-37.950;145.008;2023-04-28T13:30:20;11;10;
54869;PMS5003;40756;-37.950;145.008;2023-04-28T13:33:00;9;8;
54869;PMS5003;40756;-37.950;145.008;2023-04-28T13:35:30;9;7;
54869;PMS5003;40756;-37.950;145.008;2023-04-28T13:37:59;12;12;
54869;PMS5003;40756;-37.950;145.008;2023-04-28T13:40:29;8;8;
54869;PMS5003;40756;-37.950;145.008;2023-04-28T13:43:00;13;11;
54869;PMS5003;40756;-37.950;145.008;2023-04-28T13:45:30;10;10;
54869;PMS5003;40756;-37.950;145.008;2023-04-28T13:48:00;8;8;
54869;PMS5003;40756;-37.950;145.008;2023-04-28T13:50:29;8;7;
54869;PMS5003;40756;-37.950;145.008;2023-04-28T13:52:59;7;7;
54869;PMS5003;40756;-37.950;145.008;2023-04-28T13:55:30;7;7;
54869;PMS5003;40756;-37.950;145.008;2023-04-28T13:57:59;8;8;
54869;PMS5003;40756;-37.950;145.008;2023-04-28T14:00:29;8;8;
54869;PMS5003;40756;-37.950;145.008;2023-04-28T14:02:59;7;7;
54869;PMS5003;40756;-37.950;145.008;2023-04-28T14:05:29;8;8;
54869;PMS5003;40756;-37.950;145.008;2023-04-28T14:07:59;6;6;
54869;PMS5003;40756;-37.950;145.008;2023-04-28T14:10:29;6;6;
54869;PMS5003;40756;-37.950;145.008;2023-04-28T14:12:58;10;8;
54869;PMS5003;40756;-37.950;145.008;2023-04-28T14:15:28;5;5;
54869;PMS5003;40756;-37.950;145.008;2023-04-28T14:17:58;8;8;
54869;PMS5003;40756;-37.950;145.008;2023-04-28T14:20:28;8;7;
54869;PMS5003;40756;-37.950;145.008;2023-04-28T14:22:58;9;8;
54869;PMS5003;40756;-37.950;145.008;2023-04-28T14:25:28;8;8;
54869;PMS5003;40756;-37.950;145.008;2023-04-28T14:27:57;8;8;
54869;PMS5003;40756;-37.950;145.008;2023-04-28T14:30:27;8;7;
54869;PMS5003;40756;-37.950;145.008;2023-04-28T14:32:57;9;9;
54869;PMS5003;40756;-37.950;145.008;2023-04-28T14:35:27;7;7;
54869;PMS5003;40756;-37.950;145.008;2023-04-28T14:37:56;8;7;
54869;PMS5003;40756;-37.950;145.008;2023-04-28T14:40:26;9;9;
54869;PMS5003;40756;-37.950;145.008;2023-04-28T14:42:56;7;7;
54869;PMS5003;40756;-37.950;145.008;2023-04-28T14:45:25;7;6;
54869;PMS5003;40756;-37.950;145.008;2023-04-28T14:47:55;10;9;
54869;PMS5003;40756;-37.950;145.008;2023-04-28T14:50:25;9;8;
54869;PMS5003;40756;-37.950;145.008;2023-04-28T14:52:55;9;9;
54869;PMS5003;40756;-37.950;145.008;2023-04-28T14:55:24;6;6;
54869;PMS5003;40756;-37.950;145.008;2023-04-28T14:57:54;10;8;
54869;PMS5003;40756;-37.950;145.008;2023-04-28T15:00:23;8;8;
54869;PMS5003;40756;-37.950;145.008;2023-04-28T15:02:53;8;8;
54869;PMS5003;40756;-37.950;145.008;2023-04-28T15:05:23;7;7;
54869;PMS5003;40756;-37.950;145.008;2023-04-28T15:07:54;7;7;
54869;PMS5003;40756;-37.950;145.008;2023-04-28T15:10:24;7;5;
54869;PMS5003;40756;-37.950;145.008;2023-04-28T15:12:59;8;8;
54869;PMS5003;40756;-37.950;145.008;2023-04-28T15:15:29;8;8;
54869;PMS5003;40756;-37.950;145.008;2023-04-28T15:17:59;10;8;
54869;PMS5003;40756;-37.950;145.008;2023-04-28T15:20:28;10;9;
54869;PMS5003;40756;-37.950;145.008;2023-04-28T15:22:59;7;7;
54869;PMS5003;40756;-37.950;145.008;2023-04-28T15:25:29;7;7;
54869;PMS5003;40756;-37.950;145.008;2023-04-28T15:27:59;10;10;
54869;PMS5003;40756;-37.950;145.008;2023-04-28T15:30:28;9;9;
54869;PMS5003;40756;-37.950;145.008;2023-04-28T15:32:58;6;6;
54869;PMS5003;40756;-37.950;145.008;2023-04-28T15:35:28;7;6;
54869;PMS5003;40756;-37.950;145.008;2023-04-28T15:37:58;8;6;
54869;PMS5003;40756;-37.950;145.008;2023-04-28T15:40:28;9;7;
54869;PMS5003;40756;-37.950;145.008;2023-04-28T15:42:58;5;5;
54869;PMS5003;40756;-37.950;145.008;2023-04-28T15:45:28;9;7;
54869;PMS5003;40756;-37.950;145.008;2023-04-28T15:47:58;6;6;
54869;PMS5003;40756;-37.950;145.008;2023-04-28T15:50:27;10;9;
54869;PMS5003;40756;-37.950;145.008;2023-04-28T15:52:57;9;8;
54869;PMS5003;40756;-37.950;145.008;2023-04-28T15:55:27;8;8;
54869;PMS5003;40756;-37.950;145.008;2023-04-28T15:57:57;8;8;
54869;PMS5003;40756;-37.950;145.008;2023-04-28T16:00:26;7;7;
54869;PMS5003;40756;-37.950;145.008;2023-04-28T16:02:56;9;7;
54869;PMS5003;40756;-37.950;145.008;2023-04-28T16:05:26;7;7;
54869;PMS5003;40756;-37.950;145.008;2023-04-28T16:07:56;6;6;
54869;PMS5003;40756;-37.950;145.008;2023-04-28T16:10:25;7;7;
54869;PMS5003;40756;-37.950;145.008;2023-04-28T16:12:55;8;7;
54869;PMS5003;40756;-37.950;145.008;2023-04-28T16:15:24;11;10;
54869;PMS5003;40756;-37.950;145.008;2023-04-28T16:17:53;7;7;
54869;PMS5003;40756;-37.950;145.008;2023-04-28T16:20:23;8;8;
54869;PMS5003;40756;-37.950;145.008;2023-04-28T16:22:53;9;9;
54869;PMS5003;40756;-37.950;145.008;2023-04-28T16:25:23;5;5;